Time,TemperatureF,DewpointF,PressureIn,WindDirection,WindDirectionDegrees,WindSpeedMPH,WindSpeedGustMPH,Humidity,HourlyPrecipIn,Conditions,Clouds,dailyrainin,SoftwareType,DateUTC
2013-01-10 00:02:00,9.0,6.0,-100.00,SSE,160,0.0,0.0,89,0.00,,,0.00,,2013-01-10 09:02:00,
2013-01-10 00:12:00,9.0,6.0,-100.00,SSE,160,0.0,0.0,89,0.00,,,0.00,,2013-01-10 09:12:00,
2013-01-10 00:22:00,9.0,6.0,-100.00,NNE,25,0.0,0.0,89,0.00,,,0.00,,2013-01-10 09:22:00,
2013-01-10 00:32:00,9.0,6.0,-100.00,NNE,25,0.0,0.0,89,0.00,,,0.00,,2013-01-10 09:32:00,
2013-01-10 00:42:00,9.0,6.0,-100.00,NNE,25,0.0,0.0,89,0.00,,,0.00,,2013-01-10 09:42:00,
2013-01-10 00:52:00,7.0,5.0,-100.00,North,355,0.0,0.0,89,0.00,,,0.00,,2013-01-10 09:52:00,
2013-01-10 01:02:00,7.0,5.0,-100.00,North,355,0.0,0.0,89,0.00,,,0.00,,2013-01-10 10:02:00,
2013-01-10 01:12:00,7.0,5.0,-100.00,North,355,0.0,0.0,89,0.00,,,0.00,,2013-01-10 10:12:00,
2013-01-10 01:42:00,7.0,5.0,-100.00,NNE,25,0.0,0.0,89,0.00,,,0.00,,2013-01-10 10:42:00,
2013-01-10 01:52:00,6.0,3.0,-100.00,ENE,75,0.0,0.0,88,0.00,,,0.00,,2013-01-10 10:52:00,
2013-01-10 02:22:00,6.0,3.0,-100.00,NNE,25,0.0,0.0,88,0.00,,,0.00,,2013-01-10 11:22:00,
2013-01-10 02:42:00,6.0,3.0,-100.00,NNE,25,0.0,0.0,88,0.00,,,0.00,,2013-01-10 11:42:00,
2013-01-10 02:52:00,5.0,2.0,-100.00,NNE,20,0.0,0.0,88,0.00,,,0.00,,2013-01-10 11:52:00,
2013-01-10 03:22:00,4.0,1.0,-100.00,NNW,330,0.0,0.0,87,0.00,,,0.00,,2013-01-10 12:22:00,
2013-01-10 03:52:00,3.0,0.0,-100.00,North,0,0.0,0.0,87,0.00,,,0.00,,2013-01-10 12:52:00,
2013-01-10 04:22:00,4.0,0.0,-100.00,WSW,255,0.0,0.0,87,0.00,,,0.00,,2013-01-10 13:22:00,
2013-01-10 04:52:00,1.0,-2.0,-100.00,NW,315,0.0,0.0,86,0.00,,,0.00,,2013-01-10 13:52:00,
2013-01-10 05:22:00,3.0,-1.0,-100.00,NNE,20,0.0,0.0,86,0.00,,,0.00,,2013-01-10 14:22:00,
2013-01-10 05:52:00,1.0,-2.0,-100.00,West,280,0.0,0.0,86,0.00,,,0.00,,2013-01-10 14:52:00,
2013-01-10 06:22:00,2.0,-1.0,-100.00,West,280,0.0,0.0,86,0.00,,,0.00,,2013-01-10 15:22:00,
2013-01-10 06:53:00,2.0,-2.0,-100.00,NW,310,0.0,0.0,86,0.00,,,0.00,,2013-01-10 15:53:00,
2013-01-10 07:22:00,2.0,-2.0,-100.00,NW,325,0.0,0.0,86,0.00,,,0.00,,2013-01-10 16:22:00,
2013-01-10 07:52:00,1.0,-2.0,-100.00,WNW,290,0.0,0.0,86,0.00,,,0.00,,2013-01-10 16:52:00,
2013-01-10 09:23:00,5.0,2.0,-100.00,West,275,0.0,0.0,87,0.00,,,0.00,,2013-01-10 18:23:00,
2013-01-10 09:33:00,5.0,2.0,-100.00,West,275,0.0,0.0,87,0.00,,,0.00,,2013-01-10 18:33:00,
2013-01-10 09:43:00,5.0,2.0,-100.00,West,275,0.0,0.0,87,0.00,,,0.00,,2013-01-10 18:43:00,
2013-01-10 09:52:00,6.0,3.0,-100.00,West,280,0.0,0.0,87,0.00,,,0.00,,2013-01-10 18:52:00,
2013-01-10 10:02:00,6.0,3.0,-100.00,West,280,0.0,0.0,87,0.00,,,0.00,,2013-01-10 19:02:00,
2013-01-10 11:23:00,9.0,6.0,-100.00,NW,315,0.0,0.0,88,0.00,,,0.00,,2013-01-10 20:23:00,
2013-01-10 11:32:00,9.0,6.0,-100.00,NW,315,0.0,0.0,88,0.00,,,0.00,,2013-01-10 20:32:00,
2013-01-10 11:42:00,9.0,6.0,-100.00,NW,315,0.0,0.0,88,0.00,,,0.00,,2013-01-10 20:42:00,
2013-01-10 11:53:00,9.0,7.0,-100.00,WNW,290,0.0,0.0,88,0.00,,,0.00,,2013-01-10 20:53:00,
2013-01-10 12:03:00,9.0,7.0,-100.00,WNW,290,0.0,0.0,88,0.00,,,0.00,,2013-01-10 21:03:00,
2013-01-10 12:23:00,11.0,8.0,-100.00,NW,315,0.0,0.0,89,0.00,,,0.00,,2013-01-10 21:23:00,
2013-01-10 12:33:00,11.0,8.0,-100.00,NW,315,0.0,0.0,89,0.00,,,0.00,,2013-01-10 21:33:00,
2013-01-10 12:42:00,11.0,8.0,-100.00,NW,315,0.0,0.0,89,0.00,,,0.00,,2013-01-10 21:42:00,
2013-01-10 12:52:00,11.0,9.0,-100.00,WSW,245,0.0,0.0,89,0.00,,,0.00,,2013-01-10 21:52:00,
2013-01-10 13:03:00,11.0,9.0,-100.00,WSW,245,0.0,0.0,89,0.00,,,0.00,,2013-01-10 22:03:00,
2013-01-10 13:12:00,11.0,9.0,-100.00,WSW,245,0.0,0.0,89,0.00,,,0.00,,2013-01-10 22:12:00,
2013-01-10 13:23:00,13.0,10.0,-100.00,WNW,300,0.0,0.0,89,0.00,,,0.00,,2013-01-10 22:23:00,
2013-01-10 13:32:00,13.0,10.0,-100.00,WNW,300,0.0,0.0,89,0.00,,,0.00,,2013-01-10 22:32:00,
2013-01-10 13:43:00,13.0,10.0,-100.00,WNW,300,0.0,0.0,89,0.00,,,0.00,,2013-01-10 22:43:00,
2013-01-10 14:02:00,13.0,10.0,-100.00,WNW,300,0.0,0.0,89,0.00,,,0.00,,2013-01-10 23:02:00,
2013-01-10 14:12:00,13.0,10.0,-100.00,WNW,300,0.0,0.0,89,0.00,,,0.00,,2013-01-10 23:12:00,
2013-01-10 14:22:00,13.0,10.0,-100.00,West,280,0.0,0.0,89,0.00,,,0.00,,2013-01-10 23:22:00,
2013-01-10 14:33:00,13.0,10.0,-100.00,West,280,0.0,0.0,89,0.00,,,0.00,,2013-01-10 23:33:00,
2013-01-10 14:42:00,13.0,10.0,-100.00,West,280,0.0,0.0,89,0.00,,,0.00,,2013-01-10 23:42:00,
2013-01-10 14:52:00,13.0,11.0,-100.00,WNW,290,0.0,0.0,90,0.00,,,0.00,,2013-01-10 23:52:00,
2013-01-10 15:02:00,13.0,11.0,-100.00,WNW,290,0.0,0.0,90,0.00,,,0.00,,2013-01-11 00:02:00,
2013-01-10 15:12:00,13.0,11.0,-100.00,WNW,290,0.0,0.0,90,0.00,,,0.00,,2013-01-11 00:12:00,
2013-01-10 15:22:00,13.0,11.0,-100.00,WNW,295,0.0,0.0,90,0.00,,,0.00,,2013-01-11 00:22:00,
2013-01-10 15:33:00,13.0,11.0,-100.00,WNW,295,0.0,0.0,90,0.00,,,0.00,,2013-01-11 00:33:00,
2013-01-10 15:42:00,13.0,11.0,-100.00,WNW,295,0.0,0.0,90,0.00,,,0.00,,2013-01-11 00:42:00,
2013-01-10 15:52:00,13.0,11.0,-100.00,NW,325,0.0,0.0,90,0.00,,,0.00,,2013-01-11 00:52:00,
2013-01-10 16:02:00,13.0,11.0,-100.00,NW,325,0.0,0.0,90,0.00,,,0.00,,2013-01-11 01:02:00,
2013-01-10 16:12:00,13.0,11.0,-100.00,NW,325,0.0,0.0,90,0.00,,,0.00,,2013-01-11 01:12:00,
2013-01-10 16:22:00,13.0,10.0,-100.00,WNW,300,0.0,0.0,90,0.00,,,0.00,,2013-01-11 01:22:00,
2013-01-10 16:42:00,13.0,10.0,-100.00,WNW,300,0.0,0.0,90,0.00,,,0.00,,2013-01-11 01:42:00,
2013-01-10 16:52:00,12.0,10.0,-100.00,North,350,0.0,0.0,90,0.00,,,0.00,,2013-01-11 01:52:00,
2013-01-10 17:22:00,11.0,9.0,-100.00,NW,315,0.0,0.0,90,0.00,,,0.00,,2013-01-11 02:22:00,
2013-01-10 17:43:00,11.0,9.0,-100.00,NW,315,0.0,0.0,90,0.00,,,0.00,,2013-01-11 02:43:00,
2013-01-10 17:53:00,10.0,7.0,-100.00,North,0,0.0,0.0,89,0.00,,,0.00,,2013-01-11 02:53:00,
2013-01-10 18:42:00,9.0,6.0,-100.00,WNW,300,0.0,0.0,89,0.00,,,0.00,,2013-01-11 03:42:00,
2013-01-10 18:52:00,8.0,5.0,-100.00,NW,315,0.0,0.0,89,0.00,,,0.00,,2013-01-11 03:52:00,
2013-01-10 19:22:00,7.0,4.0,-100.00,WNW,290,0.0,0.0,88,0.00,,,0.00,,2013-01-11 04:22:00,
2013-01-10 19:52:00,7.0,4.0,-100.00,West,270,0.0,0.0,88,0.00,,,0.00,,2013-01-11 04:52:00,
2013-01-10 20:22:00,6.0,3.0,-100.00,NNW,335,0.0,0.0,88,0.00,,,0.00,,2013-01-11 05:22:00,
2013-01-10 20:52:00,5.0,2.0,-100.00,North,5,0.0,0.0,88,0.00,,,0.00,,2013-01-11 05:52:00,
2013-01-10 21:22:00,4.0,1.0,-100.00,NNW,330,0.0,0.0,87,0.00,,,0.00,,2013-01-11 06:22:00,
2013-01-10 21:52:00,3.0,0.0,-100.00,NW,315,0.0,0.0,87,0.00,,,0.00,,2013-01-11 06:52:00,
2013-01-10 23:52:00,2.0,-1.0,-100.00,NNW,340,0.0,0.0,86,0.00,,,0.00,,2013-01-11 08:52:00,